Time;durP1;ratioP1;P1;durP2;ratioP2;P2;SDS_P1;SDS_P2;PMS_P1;PMS_P2;Temp;Humidity;BMP_temperature;BMP_pressure;BME280_temperature;BME280_humidity;BME280_pressure;Samples;Min_cycle;Max_cycle;Signal;HPM_P1;HPM_P2
2022/05/20 00:02:00;;;;;;;14.48;4.10;;;;;;;;;;5095268;28;20196;-74
2022/05/20 00:04:27;;;;;;;14.02;3.50;;;;;;;;;;5095272;28;20199;-74
2022/05/20 00:06:55;;;;;;;21.00;3.50;;;;;;;;;;5094968;28;20573;-74
2022/05/20 00:09:23;;;;;;;15.20;3.50;;;;;;;;;;5094983;28;20204;-74
2022/05/20 00:11:51;;;;;;;13.73;2.92;;;;;;;;;;5094910;28;20200;-74
2022/05/20 00:14:19;;;;;;;15.27;3.95;;;;;;;;;;5095083;28;20200;-74
2022/05/20 00:16:46;;;;;;;20.00;4.22;;;;;;;;;;5094921;28;20706;-74
2022/05/20 00:19:15;;;;;;;15.57;4.22;;;;;;;;;;5094496;28;20224;-74
2022/05/20 00:21:42;;;;;;;15.23;3.28;;;;;;;;;;5094817;28;20199;-74
2022/05/20 00:24:10;;;;;;;15.10;3.65;;;;;;;;;;5094612;28;20200;-73
2022/05/20 00:26:39;;;;;;;13.98;3.22;;;;;;;;;;5094477;28;20196;-74
2022/05/20 00:29:06;;;;;;;15.95;3.33;;;;;;;;;;5094612;28;20210;-74
2022/05/20 00:31:35;;;;;;;13.90;2.88;;;;;;;;;;5094122;28;20227;-74
2022/05/20 00:34:02;;;;;;;14.63;4.00;;;;;;;;;;5094365;28;20778;-74
2022/05/20 00:36:30;;;;;;;14.30;3.88;;;;;;;;;;5094832;28;20568;-74
2022/05/20 00:38:57;;;;;;;15.25;4.15;;;;;;;;;;5094612;28;20414;-74
2022/05/20 00:41:25;;;;;;;14.18;3.17;;;;;;;;;;5094473;28;20192;-74
2022/05/20 00:43:54;;;;;;;17.25;4.45;;;;;;;;;;5094238;28;20204;-74
2022/05/20 00:46:22;;;;;;;15.30;3.83;;;;;;;;;;5094285;28;20566;-74
2022/05/20 00:48:56;;;;;;;16.58;3.60;;;;;;;;;;5094354;28;20211;-74
2022/05/20 00:51:25;;;;;;;18.73;4.55;;;;;;;;;;5094251;28;20199;-74
2022/05/20 00:53:56;;;;;;;13.95;3.13;;;;;;;;;;5094299;28;20196;-74
2022/05/20 00:56:25;;;;;;;13.77;3.20;;;;;;;;;;5094515;28;20553;-74
2022/05/20 00:58:54;;;;;;;13.98;3.10;;;;;;;;;;5093896;28;20228;-74
2022/05/20 01:01:22;;;;;;;14.15;3.42;;;;;;;;;;5093672;28;20196;-74
2022/05/20 01:03:53;;;;;;;14.85;4.43;;;;;;;;;;5094068;28;20200;-74
2022/05/20 01:06:20;;;;;;;13.05;2.80;;;;;;;;;;5093975;28;20196;-74
2022/05/20 01:08:48;;;;;;;15.18;3.60;;;;;;;;;;5093890;28;20207;-74
2022/05/20 01:11:15;;;;;;;13.50;2.83;;;;;;;;;;5093788;28;20196;-74
2022/05/20 01:13:44;;;;;;;12.80;2.92;;;;;;;;;;5093673;28;20207;-73
2022/05/20 01:16:13;;;;;;;13.77;3.05;;;;;;;;;;5093950;28;20195;-74
2022/05/20 01:18:42;;;;;;;13.30;2.80;;;;;;;;;;5093735;28;20232;-74
2022/05/20 01:21:09;;;;;;;12.90;2.92;;;;;;;;;;5093679;28;20671;-74
2022/05/20 01:23:38;;;;;;;14.00;3.45;;;;;;;;;;5093481;28;20211;-73
2022/05/20 01:26:07;;;;;;;13.88;2.85;;;;;;;;;;5093384;28;20200;-74
2022/05/20 01:28:35;;;;;;;13.45;2.60;;;;;;;;;;5093390;28;20666;-73
2022/05/20 01:31:04;;;;;;;12.75;2.70;;;;;;;;;;5093183;28;20311;-73
2022/05/20 01:33:32;;;;;;;16.25;3.45;;;;;;;;;;5093319;28;20192;-74
2022/05/20 01:36:00;;;;;;;12.88;2.70;;;;;;;;;;5093336;28;20192;-73
2022/05/20 01:38:28;;;;;;;13.65;2.60;;;;;;;;;;5092959;28;20206;-73
2022/05/20 01:40:58;;;;;;;15.18;3.53;;;;;;;;;;5093144;28;20305;-74
2022/05/20 01:43:35;;;;;;;16.45;3.25;;;;;;;;;;5092985;28;20196;-73
2022/05/20 01:46:10;;;;;;;16.45;4.20;;;;;;;;;;5093224;28;20203;-73
2022/05/20 01:48:39;;;;;;;14.68;3.42;;;;;;;;;;5093209;28;20650;-73
2022/05/20 01:51:09;;;;;;;14.98;3.47;;;;;;;;;;5092919;28;20200;-74
2022/05/20 01:53:39;;;;;;;15.15;3.20;;;;;;;;;;5092864;28;20205;-73
2022/05/20 01:56:11;;;;;;;13.43;2.60;;;;;;;;;;5092824;28;20204;-74
2022/05/20 01:58:41;;;;;;;13.75;2.90;;;;;;;;;;5092895;28;20208;-74
2022/05/20 02:01:10;;;;;;;17.60;3.00;;;;;;;;;;5092800;28;20231;-74
2022/05/20 02:03:40;;;;;;;13.57;3.13;;;;;;;;;;5092720;28;20595;-73
2022/05/20 02:06:11;;;;;;;12.07;2.50;;;;;;;;;;5093546;28;20199;-73
2022/05/20 02:08:41;;;;;;;12.95;2.75;;;;;;;;;;5092927;28;20226;-73
2022/05/20 02:11:14;;;;;;;13.98;3.15;;;;;;;;;;5092915;28;20209;-73
2022/05/20 02:13:43;;;;;;;22.45;2.85;;;;;;;;;;5092596;28;20707;-73
2022/05/20 02:16:11;;;;;;;14.85;3.05;;;;;;;;;;5092450;28;20202;-74
2022/05/20 02:18:42;;;;;;;14.35;2.80;;;;;;;;;;5092823;28;20248;-73
2022/05/20 02:21:11;;;;;;;13.55;2.83;;;;;;;;;;5092465;28;20255;-73
2022/05/20 02:23:41;;;;;;;14.15;3.38;;;;;;;;;;5092543;28;20200;-73
2022/05/20 02:26:12;;;;;;;14.40;3.63;;;;;;;;;;5092496;28;20204;-74
2022/05/20 02:28:41;;;;;;;13.25;2.80;;;;;;;;;;5092370;28;20196;-73
2022/05/20 02:31:11;;;;;;;14.65;2.97;;;;;;;;;;5091944;28;20218;-74
2022/05/20 02:33:39;;;;;;;12.25;2.92;;;;;;;;;;5092115;28;20203;-73
2022/05/20 02:36:07;;;;;;;13.93;3.00;;;;;;;;;;5092360;28;20200;-73
2022/05/20 02:38:36;;;;;;;14.50;2.80;;;;;;;;;;5092303;28;20207;-73
2022/05/20 02:41:04;;;;;;;15.02;3.20;;;;;;;;;;5092177;28;20228;-73
2022/05/20 02:43:33;;;;;;;13.93;3.58;;;;;;;;;;5091867;28;20200;-73
2022/05/20 02:46:01;;;;;;;13.73;3.20;;;;;;;;;;5092362;28;20207;-74
2022/05/20 02:48:29;;;;;;;14.40;3.03;;;;;;;;;;5092074;28;20200;-73
2022/05/20 02:50:56;;;;;;;14.38;2.88;;;;;;;;;;5091260;28;20550;-74
2022/05/20 02:53:23;;;;;;;24.00;3.05;;;;;;;;;;5091823;28;20200;-73
2022/05/20 02:55:51;;;;;;;13.82;2.92;;;;;;;;;;5091947;28;20768;-73
2022/05/20 03:04:13;;;;;;;12.57;2.83;;;;;;;;;;5092045;28;20195;-73
2022/05/20 03:06:41;;;;;;;13.77;3.13;;;;;;;;;;5091877;28;20287;-73
2022/05/20 03:09:09;;;;;;;13.52;2.90;;;;;;;;;;5091816;28;20202;-73
2022/05/20 03:11:37;;;;;;;13.07;2.88;;;;;;;;;;5091559;28;20204;-74
2022/05/20 03:14:05;;;;;;;13.23;2.50;;;;;;;;;;5092005;28;20203;-74
2022/05/20 03:16:35;;;;;;;13.85;2.70;;;;;;;;;;5091905;28;20200;-74
2022/05/20 03:19:02;;;;;;;16.40;3.00;;;;;;;;;;5091921;28;20206;-74
2022/05/20 03:21:30;;;;;;;12.23;2.50;;;;;;;;;;5091434;28;20708;-74
2022/05/20 03:23:59;;;;;;;13.32;2.72;;;;;;;;;;5091877;28;20284;-74
2022/05/20 03:26:27;;;;;;;12.85;2.90;;;;;;;;;;5091885;28;20196;-74
2022/05/20 03:28:54;;;;;;;15.02;3.80;;;;;;;;;;5091539;28;20206;-74
2022/05/20 03:31:22;;;;;;;15.55;3.70;;;;;;;;;;5090993;28;20215;-74
2022/05/20 03:33:51;;;;;;;13.35;3.15;;;;;;;;;;5091813;28;20341;-73
2022/05/20 03:36:19;;;;;;;15.18;4.30;;;;;;;;;;5091607;28;20196;-74
2022/05/20 03:38:47;;;;;;;13.30;3.13;;;;;;;;;;5091676;28;20266;-74
2022/05/20 03:41:14;;;;;;;15.80;3.90;;;;;;;;;;5091488;28;20224;-74
2022/05/20 03:43:42;;;;;;;15.20;3.90;;;;;;;;;;5091407;28;20669;-74
2022/05/20 03:46:10;;;;;;;13.50;3.67;;;;;;;;;;5091487;28;20290;-74
2022/05/20 03:48:37;;;;;;;14.57;3.80;;;;;;;;;;5091761;28;20200;-74
2022/05/20 03:51:10;;;;;;;14.05;4.05;;;;;;;;;;5091589;28;20203;-74
2022/05/20 03:53:37;;;;;;;15.57;3.43;;;;;;;;;;5091203;28;20205;-74
2022/05/20 03:56:05;;;;;;;16.27;3.73;;;;;;;;;;5091333;28;20448;-74
2022/05/20 03:58:33;;;;;;;13.87;3.47;;;;;;;;;;5091633;28;20840;-74
2022/05/20 04:03:46;;;;;;;13.63;3.13;;;;;;;;;;5094823;28;20421;-75
2022/05/20 04:06:15;;;;;;;13.00;3.07;;;;;;;;;;5095140;28;20442;-75
2022/05/20 04:08:43;;;;;;;14.00;3.30;;;;;;;;;;5094953;28;20446;-75
2022/05/20 04:11:11;;;;;;;13.00;3.10;;;;;;;;;;5094931;28;20461;-75
2022/05/20 04:13:40;;;;;;;14.33;2.40;;;;;;;;;;5095087;28;20864;-74
2022/05/20 04:16:07;;;;;;;13.27;2.67;;;;;;;;;;5095185;28;20988;-75
2022/05/20 04:18:35;;;;;;;13.33;2.40;;;;;;;;;;5094765;28;20869;-75
2022/05/20 04:21:02;;;;;;;12.57;2.50;;;;;;;;;;5094724;28;20484;-75
2022/05/20 04:23:32;;;;;;;12.10;2.37;;;;;;;;;;5094701;28;20438;-75
2022/05/20 04:25:59;;;;;;;12.97;2.50;;;;;;;;;;5094863;28;20441;-75
2022/05/20 04:28:27;;;;;;;13.83;3.13;;;;;;;;;;5095015;28;20450;-75
2022/05/20 04:30:57;;;;;;;12.97;2.40;;;;;;;;;;5094381;28;20487;-75
2022/05/20 04:33:24;;;;;;;12.90;2.60;;;;;;;;;;5094553;28;20439;-75
2022/05/20 04:35:52;;;;;;;12.90;2.43;;;;;;;;;;5094184;28;20435;-75
2022/05/20 04:38:19;;;;;;;15.10;2.57;;;;;;;;;;5094510;28;20596;-75
2022/05/20 04:46:56;;;;;;;12.83;2.43;;;;;;;;;;5094293;28;20504;-75
2022/05/20 04:49:09;;;;;;;12.80;2.50;;;;;;;;;;5094363;28;20426;-75
2022/05/20 04:51:37;;;;;;;12.80;2.40;;;;;;;;;;5094170;28;20476;-75
2022/05/20 04:56:52;;;;;;;11.80;2.10;;;;;;;;;;5094362;28;20485;-76
2022/05/20 04:59:20;;;;;;;12.87;2.30;;;;;;;;;;5094069;28;20812;-76
2022/05/20 05:01:49;;;;;;;12.20;1.80;;;;;;;;;;5094243;28;20474;-75
2022/05/20 05:04:17;;;;;;;13.60;2.80;;;;;;;;;;5094035;28;20497;-76
2022/05/20 05:06:44;;;;;;;12.87;2.20;;;;;;;;;;5093832;28;20449;-76
2022/05/20 05:09:12;;;;;;;12.40;2.03;;;;;;;;;;5093753;28;20533;-76
2022/05/20 05:11:40;;;;;;;12.40;1.87;;;;;;;;;;5094102;28;20524;-75
2022/05/20 05:14:10;;;;;;;12.50;2.20;;;;;;;;;;5092706;28;20442;-76
2022/05/20 05:16:39;;;;;;;12.37;2.00;;;;;;;;;;5093725;28;20460;-76
2022/05/20 05:19:06;;;;;;;12.90;2.10;;;;;;;;;;5094173;28;20450;-76
2022/05/20 05:21:34;;;;;;;12.80;2.00;;;;;;;;;;5093225;28;20485;-76
2022/05/20 05:24:01;;;;;;;12.03;2.40;;;;;;;;;;5093543;28;21023;-75
2022/05/20 05:26:29;;;;;;;12.80;1.90;;;;;;;;;;5093964;28;20443;-76
2022/05/20 05:28:57;;;;;;;12.83;1.90;;;;;;;;;;5093848;28;20448;-76
2022/05/20 05:31:26;;;;;;;13.10;2.00;;;;;;;;;;5092878;28;20454;-76
2022/05/20 05:33:54;;;;;;;13.57;1.90;;;;;;;;;;5093451;28;20558;-76
2022/05/20 05:36:21;;;;;;;12.57;1.80;;;;;;;;;;5093233;28;20501;-75
2022/05/20 05:38:49;;;;;;;12.57;2.10;;;;;;;;;;5093317;28;20441;-75
2022/05/20 05:41:19;;;;;;;15.80;1.97;;;;;;;;;;5092906;28;20480;-76
2022/05/20 05:43:47;;;;;;;14.03;1.83;;;;;;;;;;5093319;28;20435;-76
2022/05/20 05:46:14;;;;;;;12.30;1.80;;;;;;;;;;5093104;28;20438;-76
2022/05/20 05:48:43;;;;;;;14.20;1.97;;;;;;;;;;5093080;28;20444;-75
2022/05/20 05:51:11;;;;;;;15.00;2.50;;;;;;;;;;5092983;28;20985;-76
2022/05/20 05:53:39;;;;;;;14.37;2.30;;;;;;;;;;5092973;28;20838;-76
2022/05/20 05:56:09;;;;;;;13.37;2.37;;;;;;;;;;5092969;28;20963;-76
2022/05/20 05:58:37;;;;;;;12.90;2.27;;;;;;;;;;5092933;28;20442;-76
2022/05/20 06:01:05;;;;;;;13.40;2.43;;;;;;;;;;5092811;28;20509;-76
2022/05/20 06:03:33;;;;;;;13.97;2.53;;;;;;;;;;5092560;28;20453;-76
2022/05/20 06:06:02;;;;;;;16.43;2.50;;;;;;;;;;5092956;28;20449;-76
2022/05/20 06:08:29;;;;;;;14.43;2.50;;;;;;;;;;5092854;28;20451;-76
2022/05/20 06:10:57;;;;;;;15.43;2.53;;;;;;;;;;5092819;28;20452;-76
2022/05/20 06:13:25;;;;;;;14.47;2.90;;;;;;;;;;5092340;28;20530;-76
2022/05/20 06:15:55;;;;;;;13.47;2.50;;;;;;;;;;5092752;28;20447;-76
2022/05/20 06:18:23;;;;;;;15.27;2.70;;;;;;;;;;5092793;28;20470;-76
2022/05/20 06:20:50;;;;;;;14.27;2.70;;;;;;;;;;5092637;28;20481;-75
2022/05/20 06:23:19;;;;;;;15.53;3.20;;;;;;;;;;5092588;28;20439;-76
2022/05/20 06:25:47;;;;;;;13.33;2.30;;;;;;;;;;5092535;28;20442;-76
2022/05/20 06:28:16;;;;;;;12.80;2.13;;;;;;;;;;5092410;28;20458;-76
2022/05/20 06:30:43;;;;;;;12.60;2.00;;;;;;;;;;5091979;28;20449;-76
2022/05/20 06:33:11;;;;;;;12.23;1.90;;;;;;;;;;5092253;28;20450;-76
2022/05/20 06:41:11;;;;;;;13.87;2.40;;;;;;;;;;5092415;28;20546;-75
2022/05/20 06:43:39;;;;;;;13.87;2.10;;;;;;;;;;5092226;28;20493;-76
2022/05/20 06:46:07;;;;;;;15.50;2.00;;;;;;;;;;5092115;28;20502;-76
2022/05/20 06:48:39;;;;;;;13.73;2.07;;;;;;;;;;5092087;28;20797;-76
2022/05/20 06:51:07;;;;;;;13.97;2.40;;;;;;;;;;5092044;28;20442;-76
2022/05/20 06:53:36;;;;;;;12.80;2.10;;;;;;;;;;5092030;28;20446;-76
2022/05/20 06:56:04;;;;;;;14.33;2.40;;;;;;;;;;5092093;28;20449;-76
2022/05/20 06:58:32;;;;;;;12.37;2.07;;;;;;;;;;5092056;28;20436;-75
2022/05/20 07:00:59;;;;;;;12.20;1.90;;;;;;;;;;5092144;28;20481;-76
2022/05/20 07:03:27;;;;;;;15.03;2.33;;;;;;;;;;5091824;28;20434;-76
2022/05/20 07:05:54;;;;;;;12.70;1.87;;;;;;;;;;5091918;28;20931;-76
2022/05/20 07:08:22;;;;;;;16.10;1.90;;;;;;;;;;5092509;28;20438;-76
2022/05/20 07:10:52;;;;;;;12.40;2.10;;;;;;;;;;5092417;28;20434;-76
2022/05/20 07:13:19;;;;;;;12.57;2.10;;;;;;;;;;5091680;28;20442;-77
2022/05/20 07:15:47;;;;;;;16.73;2.20;;;;;;;;;;5091820;28;20442;-76
2022/05/20 07:18:14;;;;;;;12.73;1.90;;;;;;;;;;5091557;28;20477;-76
2022/05/20 07:20:43;;;;;;;16.37;2.10;;;;;;;;;;5091689;28;20434;-76
2022/05/20 07:23:10;;;;;;;12.80;2.10;;;;;;;;;;5091896;28;20506;-76
2022/05/20 07:25:37;;;;;;;13.00;2.33;;;;;;;;;;5091545;28;20438;-76
2022/05/20 07:28:07;;;;;;;13.57;2.23;;;;;;;;;;5091819;28;20449;-77
2022/05/20 07:30:35;;;;;;;15.13;2.87;;;;;;;;;;5091683;28;20438;-76
2022/05/20 07:33:03;;;;;;;12.70;2.10;;;;;;;;;;5091365;28;20449;-76
2022/05/20 07:35:31;;;;;;;14.37;1.90;;;;;;;;;;5091367;28;20950;-76
2022/05/20 07:37:58;;;;;;;13.37;2.20;;;;;;;;;;5093756;28;20438;-76
2022/05/20 07:40:26;;;;;;;13.30;2.07;;;;;;;;;;5095852;28;20436;-76
2022/05/20 07:42:54;;;;;;;14.10;2.13;;;;;;;;;;5095415;28;20485;-76
2022/05/20 07:45:24;;;;;;;12.53;2.37;;;;;;;;;;5095170;28;20442;-77
2022/05/20 07:47:52;;;;;;;13.90;1.90;;;;;;;;;;5095874;28;20442;-77
2022/05/20 07:50:20;;;;;;;13.10;2.53;;;;;;;;;;5095526;28;20450;-76
2022/05/20 07:55:34;;;;;;;12.37;1.83;;;;;;;;;;5095172;28;20428;-76
2022/05/20 07:58:02;;;;;;;14.43;1.70;;;;;;;;;;5095499;28;20480;-75
2022/05/20 08:00:32;;;;;;;17.53;2.00;;;;;;;;;;5095253;28;20438;-76
2022/05/20 08:03:01;;;;;;;13.07;2.00;;;;;;;;;;5095219;28;20486;-76
2022/05/20 08:05:29;;;;;;;13.37;2.17;;;;;;;;;;5094897;28;20453;-75
2022/05/20 08:07:59;;;;;;;15.27;2.13;;;;;;;;;;5095013;28;20451;-76
2022/05/20 08:10:28;;;;;;;12.60;2.13;;;;;;;;;;5095027;28;20469;-75
2022/05/20 08:12:55;;;;;;;17.27;2.00;;;;;;;;;;5095204;28;20991;-75
2022/05/20 08:15:23;;;;;;;15.00;2.30;;;;;;;;;;5094818;28;20953;-75
2022/05/20 08:17:52;;;;;;;14.97;2.20;;;;;;;;;;5095097;28;20493;-75
2022/05/20 08:20:25;;;;;;;13.80;1.60;;;;;;;;;;5094772;28;20959;-75
2022/05/20 08:22:53;;;;;;;13.43;2.00;;;;;;;;;;5094705;28;20494;-76
2022/05/20 08:25:21;;;;;;;19.07;2.80;;;;;;;;;;5094809;28;20931;-75
2022/05/20 08:27:48;;;;;;;14.10;1.83;;;;;;;;;;5094905;28;20448;-75
2022/05/20 08:30:16;;;;;;;12.50;1.90;;;;;;;;;;5094647;28;20476;-75
2022/05/20 08:32:44;;;;;;;15.73;2.20;;;;;;;;;;5094188;28;20466;-76
2022/05/20 08:35:13;;;;;;;13.83;2.10;;;;;;;;;;5094444;28;20454;-75
2022/05/20 08:37:41;;;;;;;13.30;1.93;;;;;;;;;;5094444;28;20451;-75
2022/05/20 08:40:10;;;;;;;16.80;2.37;;;;;;;;;;5094510;28;20953;-75
2022/05/20 08:42:38;;;;;;;15.43;2.23;;;;;;;;;;5094702;28;20566;-75
2022/05/20 08:45:06;;;;;;;14.67;1.97;;;;;;;;;;5093757;28;20443;-75
2022/05/20 08:47:39;;;;;;;12.70;2.17;;;;;;;;;;5093229;28;20982;-76
2022/05/20 08:50:10;;;;;;;12.57;2.17;;;;;;;;;;5094678;28;20439;-75
2022/05/20 08:52:38;;;;;;;13.80;2.20;;;;;;;;;;5094413;28;20497;-75
2022/05/20 08:55:06;;;;;;;12.50;2.30;;;;;;;;;;5094086;28;20437;-75
2022/05/20 08:57:35;;;;;;;18.17;2.20;;;;;;;;;;5093937;28;20449;-75
2022/05/20 09:00:03;;;;;;;13.30;2.33;;;;;;;;;;5094173;28;20461;-75
2022/05/20 09:02:30;;;;;;;14.83;2.30;;;;;;;;;;5093972;28;20572;-75
2022/05/20 09:04:58;;;;;;;13.93;1.90;;;;;;;;;;5093876;28;20446;-75
2022/05/20 09:07:25;;;;;;;17.13;2.57;;;;;;;;;;5093628;28;20443;-75
2022/05/20 09:09:56;;;;;;;20.90;4.73;;;;;;;;;;5093881;28;20441;-73
2022/05/20 09:12:31;;;;;;;13.57;2.43;;;;;;;;;;5093904;28;20450;-73
2022/05/20 09:17:46;;;;;;;20.63;4.47;;;;;;;;;;5091933;28;20570;-75
2022/05/20 09:20:17;;;;;;;15.53;3.33;;;;;;;;;;5092966;28;20457;-74
2022/05/20 09:22:54;;;;;;;13.20;1.70;;;;;;;;;;5092960;28;20489;-73
2022/05/20 09:25:27;;;;;;;12.30;1.80;;;;;;;;;;5092809;28;20444;-74
2022/05/20 09:27:57;;;;;;;13.60;1.90;;;;;;;;;;5092925;28;20454;-75
2022/05/20 09:30:25;;;;;;;14.67;1.57;;;;;;;;;;5092359;28;20441;-75
2022/05/20 09:33:00;;;;;;;17.83;5.17;;;;;;;;;;5092703;28;21016;-73
2022/05/20 09:35:33;;;;;;;31.77;13.90;;;;;;;;;;5092855;28;20438;-73
2022/05/20 09:38:00;;;;;;;14.70;2.03;;;;;;;;;;5093418;28;20447;-75
2022/05/20 09:40:36;;;;;;;22.33;6.10;;;;;;;;;;5093158;28;20450;-73
2022/05/20 09:43:05;;;;;;;17.50;4.10;;;;;;;;;;5092824;28;20488;-72
2022/05/20 09:45:37;;;;;;;12.80;1.70;;;;;;;;;;5092027;28;20453;-74
2022/05/20 09:48:04;;;;;;;50.77;22.53;;;;;;;;;;5092802;28;20448;-74
2022/05/20 09:50:34;;;;;;;16.17;2.83;;;;;;;;;;5092655;28;20992;-74
2022/05/20 09:53:02;;;;;;;20.20;4.13;;;;;;;;;;5092634;28;20978;-72
2022/05/20 09:55:31;;;;;;;17.63;3.03;;;;;;;;;;5092216;28;20454;-74
2022/05/20 09:58:12;;;;;;;12.10;1.90;;;;;;;;;;5090797;28;20434;-76
2022/05/20 10:00:40;;;;;;;16.83;2.10;;;;;;;;;;5091923;28;20442;-75
2022/05/20 10:03:12;;;;;;;13.50;1.93;;;;;;;;;;5090760;28;20485;-74
2022/05/20 10:05:43;;;;;;;12.13;1.40;;;;;;;;;;5090709;28;20483;-75
2022/05/20 10:08:13;;;;;;;13.30;1.93;;;;;;;;;;5090850;28;20459;-75
2022/05/20 10:11:01;;;;;;;14.43;1.50;;;;;;;;;;5091142;28;20440;-75
2022/05/20 10:13:53;;;;;;;14.00;2.23;;;;;;;;;;5091122;28;20452;-75
2022/05/20 10:16:26;;;;;;;13.87;1.50;;;;;;;;;;5077060;28;20448;-75
2022/05/20 10:18:59;;;;;;;12.80;1.50;;;;;;;;;;5092588;28;20481;-75
2022/05/20 10:21:41;;;;;;;12.20;1.83;;;;;;;;;;5092220;28;20947;-75
2022/05/20 10:24:15;;;;;;;12.07;1.60;;;;;;;;;;5090542;28;20442;-75
2022/05/20 10:26:45;;;;;;;13.90;2.07;;;;;;;;;;5093053;28;20429;-75
2022/05/20 10:34:54;;;;;;;12.90;1.70;;;;;;;;;;5092539;28;20417;-75
2022/05/20 10:37:26;;;;;;;14.40;1.60;;;;;;;;;;5092055;28;20453;-75
2022/05/20 10:40:02;;;;;;;12.50;1.73;;;;;;;;;;5092630;28;20981;-75
2022/05/20 10:42:39;;;;;;;13.40;2.17;;;;;;;;;;5092137;28;20481;-75
2022/05/20 10:50:57;;;;;;;12.10;1.50;;;;;;;;;;5092329;28;20430;-76
2022/05/20 10:53:29;;;;;;;12.47;1.90;;;;;;;;;;5091884;28;20971;-75
2022/05/20 10:56:05;;;;;;;12.70;1.70;;;;;;;;;;5092374;28;20815;-75
2022/05/20 10:58:45;;;;;;;14.30;1.63;;;;;;;;;;5092055;28;20437;-76
2022/05/20 11:01:17;;;;;;;12.73;1.77;;;;;;;;;;5091931;28;20437;-75
2022/05/20 11:03:59;;;;;;;11.63;1.50;;;;;;;;;;5092165;28;20487;-76
2022/05/20 11:06:44;;;;;;;16.50;1.80;;;;;;;;;;5092177;28;20469;-75
2022/05/20 11:09:16;;;;;;;12.40;1.63;;;;;;;;;;5082017;28;20460;-75
2022/05/20 11:11:58;;;;;;;13.80;1.57;;;;;;;;;;5092041;28;20454;-75
2022/05/20 11:14:46;;;;;;;12.00;1.60;;;;;;;;;;5094237;28;20976;-76
2022/05/20 11:17:21;;;;;;;13.23;1.70;;;;;;;;;;5096076;28;20485;-76
2022/05/20 11:20:03;;;;;;;12.57;1.70;;;;;;;;;;5096101;28;20452;-76
2022/05/20 11:22:46;;;;;;;13.90;1.50;;;;;;;;;;5096901;28;20531;-76
2022/05/20 11:25:30;;;;;;;13.10;1.70;;;;;;;;;;5095659;28;20494;-77
2022/05/20 11:28:05;;;;;;;12.57;1.50;;;;;;;;;;5096008;28;20906;-76
2022/05/20 11:30:40;;;;;;;13.20;1.40;;;;;;;;;;5095908;28;20436;-75
2022/05/20 11:33:17;;;;;;;12.03;1.60;;;;;;;;;;5095624;28;20466;-75
2022/05/20 11:35:59;;;;;;;12.30;1.47;;;;;;;;;;5096035;28;20434;-75
2022/05/20 11:39:00;;;;;;;12.53;1.63;;;;;;;;;;5095749;28;20438;-76
2022/05/20 11:41:32;;;;;;;14.40;1.70;;;;;;;;;;5033122;28;20523;-76
2022/05/20 11:44:14;;;;;;;13.33;1.50;;;;;;;;;;5033352;28;20495;-75
2022/05/20 11:46:51;;;;;;;14.67;1.60;;;;;;;;;;5069445;28;20438;-76
2022/05/20 11:49:27;;;;;;;13.27;1.60;;;;;;;;;;5095726;28;20438;-76
2022/05/20 11:52:13;;;;;;;12.80;1.50;;;;;;;;;;5095502;28;20441;-76
2022/05/20 11:54:46;;;;;;;14.13;1.40;;;;;;;;;;5095445;28;20959;-76
2022/05/20 11:57:17;;;;;;;19.03;1.47;;;;;;;;;;5095261;28;20451;-76
2022/05/20 11:59:50;;;;;;;12.73;2.03;;;;;;;;;;5095344;28;20439;-75
2022/05/20 12:02:19;;;;;;;12.10;1.40;;;;;;;;;;5095940;28;20478;-76
2022/05/20 12:04:48;;;;;;;17.37;2.80;;;;;;;;;;5095705;28;20425;-76
2022/05/20 12:07:16;;;;;;;12.30;1.77;;;;;;;;;;5095018;28;20426;-76
2022/05/20 12:09:45;;;;;;;13.27;1.73;;;;;;;;;;5095144;28;20844;-75
2022/05/20 12:12:19;;;;;;;12.90;1.83;;;;;;;;;;5095294;28;20438;-76
2022/05/20 12:15:05;;;;;;;12.07;1.53;;;;;;;;;;5095193;28;20442;-76
2022/05/20 12:17:34;;;;;;;13.10;1.63;;;;;;;;;;5094835;28;20687;-75
2022/05/20 12:25:40;;;;;;;12.30;1.30;;;;;;;;;;5094724;28;20426;-76
2022/05/20 12:28:29;;;;;;;11.30;1.20;;;;;;;;;;5094805;28;20447;-76
2022/05/20 12:31:06;;;;;;;13.20;1.70;;;;;;;;;;5094441;28;21009;-76
2022/05/20 12:33:50;;;;;;;14.40;1.60;;;;;;;;;;5094406;28;20950;-76
2022/05/20 12:36:20;;;;;;;11.63;1.43;;;;;;;;;;5094593;28;20456;-75
2022/05/20 12:38:48;;;;;;;11.60;1.30;;;;;;;;;;5094730;28;20445;-76
2022/05/20 12:41:21;;;;;;;11.73;1.40;;;;;;;;;;5094232;28;20442;-78
2022/05/20 12:43:55;;;;;;;12.00;1.50;;;;;;;;;;5094453;28;20492;-75
2022/05/20 12:46:35;;;;;;;14.53;1.63;;;;;;;;;;5094383;28;20528;-75
2022/05/20 12:49:03;;;;;;;11.83;1.50;;;;;;;;;;5094584;28;20517;-75
2022/05/20 12:51:40;;;;;;;11.87;1.70;;;;;;;;;;5093990;28;20533;-76
2022/05/20 12:54:15;;;;;;;13.70;1.70;;;;;;;;;;5094656;28;20532;-75
2022/05/20 12:56:43;;;;;;;13.30;1.80;;;;;;;;;;5094327;28;20444;-75
2022/05/20 12:59:15;;;;;;;15.90;1.70;;;;;;;;;;5094359;28;20437;-75
2022/05/20 13:01:44;;;;;;;13.13;2.27;;;;;;;;;;5094302;28;20440;-75
2022/05/20 13:04:14;;;;;;;12.87;1.57;;;;;;;;;;5094258;28;20876;-75
2022/05/20 13:06:47;;;;;;;11.60;1.30;;;;;;;;;;5094266;28;20437;-75
2022/05/20 13:09:14;;;;;;;13.70;1.30;;;;;;;;;;5094148;28;20522;-75
2022/05/20 13:11:43;;;;;;;12.17;1.33;;;;;;;;;;5093892;28;20949;-75
2022/05/20 13:14:12;;;;;;;19.53;1.60;;;;;;;;;;5093846;28;20458;-75
2022/05/20 13:16:42;;;;;;;12.37;1.40;;;;;;;;;;5094133;28;20934;-75
2022/05/20 13:19:11;;;;;;;12.10;1.40;;;;;;;;;;5094071;28;20483;-75
2022/05/20 13:21:41;;;;;;;13.80;1.50;;;;;;;;;;5094022;28;20516;-75
2022/05/20 13:24:14;;;;;;;14.30;1.20;;;;;;;;;;5093713;28;20494;-75
2022/05/20 13:26:42;;;;;;;11.90;1.47;;;;;;;;;;5093648;28;20444;-75
2022/05/20 13:29:11;;;;;;;12.00;1.40;;;;;;;;;;5093491;28;20476;-75
2022/05/20 13:31:39;;;;;;;11.83;1.37;;;;;;;;;;5093528;28;20467;-75
2022/05/20 13:34:09;;;;;;;11.90;1.47;;;;;;;;;;5093441;28;20521;-75
2022/05/20 13:36:38;;;;;;;12.73;1.80;;;;;;;;;;5093225;28;20513;-75
2022/05/20 13:39:07;;;;;;;11.63;1.47;;;;;;;;;;5093318;28;20444;-75
2022/05/20 13:41:35;;;;;;;12.67;1.60;;;;;;;;;;5093121;28;20443;-76
2022/05/20 13:44:04;;;;;;;13.50;1.47;;;;;;;;;;5093476;28;20487;-75
2022/05/20 13:49:21;;;;;;;12.67;1.40;;;;;;;;;;5093165;28;20487;-76
2022/05/20 13:51:50;;;;;;;13.13;1.70;;;;;;;;;;5093087;28;20435;-75
2022/05/20 13:54:20;;;;;;;11.77;1.40;;;;;;;;;;5093065;28;20443;-75
2022/05/20 13:56:48;;;;;;;11.80;1.60;;;;;;;;;;5093081;28;20434;-75
2022/05/20 13:59:21;;;;;;;11.17;1.50;;;;;;;;;;5092770;28;20449;-76
2022/05/20 14:01:51;;;;;;;13.73;1.50;;;;;;;;;;5093159;28;20467;-75
2022/05/20 14:04:21;;;;;;;15.50;1.37;;;;;;;;;;5092818;28;20474;-75
2022/05/20 14:06:49;;;;;;;13.20;1.57;;;;;;;;;;5092846;28;20445;-75
2022/05/20 14:09:17;;;;;;;13.60;1.37;;;;;;;;;;5092640;28;20437;-76
2022/05/20 14:11:47;;;;;;;12.17;1.60;;;;;;;;;;5092705;28;20446;-75
2022/05/20 14:14:16;;;;;;;15.27;1.60;;;;;;;;;;5092847;28;20449;-75
2022/05/20 14:16:46;;;;;;;12.73;1.37;;;;;;;;;;5093154;28;20459;-75
2022/05/20 14:19:17;;;;;;;11.90;1.23;;;;;;;;;;5092527;28;20478;-75
2022/05/20 14:21:47;;;;;;;12.47;1.30;;;;;;;;;;5092866;28;20829;-75
2022/05/20 14:24:17;;;;;;;13.50;1.50;;;;;;;;;;5092602;28;20489;-78
2022/05/20 14:26:45;;;;;;;12.40;1.87;;;;;;;;;;5092657;28;20430;-75
2022/05/20 14:29:16;;;;;;;12.47;1.43;;;;;;;;;;5092398;28;20446;-77
2022/05/20 14:31:46;;;;;;;11.90;1.70;;;;;;;;;;5092533;28;20552;-75
2022/05/20 14:34:25;;;;;;;13.03;1.23;;;;;;;;;;5092393;28;20471;-75
2022/05/20 14:36:54;;;;;;;12.90;2.80;;;;;;;;;;5092715;28;20537;-75
2022/05/20 14:39:23;;;;;;;12.00;1.40;;;;;;;;;;5092234;28;20454;-74
2022/05/20 14:41:58;;;;;;;12.50;1.80;;;;;;;;;;5092268;28;20467;-75
2022/05/20 14:44:26;;;;;;;12.30;1.43;;;;;;;;;;5092122;28;21070;-75
2022/05/20 14:47:17;;;;;;;13.07;1.70;;;;;;;;;;5092393;28;20976;-75
2022/05/20 14:49:47;;;;;;;12.20;1.47;;;;;;;;;;5092486;28;20430;-75
2022/05/20 14:52:24;;;;;;;12.33;1.50;;;;;;;;;;5092167;28;20457;-75
2022/05/20 14:54:51;;;;;;;12.87;1.60;;;;;;;;;;5092444;28;20429;-75
2022/05/20 14:57:26;;;;;;;15.23;1.70;;;;;;;;;;5091783;28;20949;-75
2022/05/20 15:00:12;;;;;;;12.80;1.67;;;;;;;;;;5092067;28;20504;-75
2022/05/20 15:02:40;;;;;;;12.30;1.50;;;;;;;;;;5092222;28;20473;-75
2022/05/20 15:05:09;;;;;;;11.50;1.50;;;;;;;;;;5091895;28;20994;-74
2022/05/20 15:07:38;;;;;;;11.97;1.60;;;;;;;;;;5092034;28;20823;-75
2022/05/20 15:10:10;;;;;;;12.50;1.60;;;;;;;;;;5091937;28;20970;-74
2022/05/20 15:12:37;;;;;;;14.13;1.70;;;;;;;;;;5092291;28;20450;-75
2022/05/20 15:15:06;;;;;;;12.30;1.40;;;;;;;;;;5091971;28;20473;-74
2022/05/20 15:17:34;;;;;;;15.67;1.60;;;;;;;;;;5091830;28;20479;-75
2022/05/20 15:20:01;;;;;;;14.20;1.40;;;;;;;;;;5092297;28;20459;-75
2022/05/20 15:22:29;;;;;;;12.20;1.60;;;;;;;;;;5091852;28;20441;-74
2022/05/20 15:24:58;;;;;;;12.50;1.40;;;;;;;;;;5091664;28;21006;-75
2022/05/20 15:27:28;;;;;;;11.63;1.70;;;;;;;;;;5091699;28;20435;-75
2022/05/20 15:29:56;;;;;;;12.43;1.40;;;;;;;;;;5091931;28;20452;-75
2022/05/20 15:35:09;;;;;;;12.10;1.40;;;;;;;;;;5091844;28;20426;-74
2022/05/20 15:37:38;;;;;;;12.00;1.57;;;;;;;;;;5091558;28;20821;-74
2022/05/20 15:40:11;;;;;;;11.70;1.43;;;;;;;;;;5091662;28;20459;-75